Edwards Air Force Base
KEDW : rendu visible

Aérodrome :











RETROUVEZ-NOUS SUR...

 
LOGIN :

S'inscrire | Disclaimer

   EN    FR    IT 

 









Légende :    VFR   VFR Marginal   IFR   IFR Intensif   IFR Très Intensif
Visi : 
Plafond : 
>= 8 km
>= 3000ft
5 à 8 km
1000 à 3000 ft
1500m à 5 km
500 à 1000 ft
800 à 1500m
200 à 500 ft
< 800m
< 200 ft
Symboles :   Orages  Brouillard  Fortes neiges  Fortes précipitations  Vent > 20 kt






- Altitude de l'aérodrome : 2312 ft


KEDW - Edwards Air Force Base

DERNIER METAR :
  • 180858Z AUTO 21004KT 10SM CLR M01/M03 A3028 RMK AO2 SLP264 T10091031 50005

METARs EXPIRÉS :
  • 180758Z AUTO 00000KT 10SM CLR 01/M02 A3029 RMK AO2 SLP265 T00081024 401220002
  • 180658Z AUTO 34005KT 10SM CLR 03/M04 A3028 RMK AO2 SLP262 T00271039

TAF COR TAF KEDW
Valide du 17 à 22h jusqu'au 19 à 04h UTC


172203Z 1722/1904 VRB06KT 9999 BKN300 QNH3024INS
BECMG 1812/1813 VRB06KT 9999 SCT300 QNH3030INS TX12/1723Z TNM02/1813Z LAST NO AMDS AFT 1800 NEXT 1918



MET'MAP, la Météo Aéronautique d'un coup d'oeil ! - Copyright ORBIFLY Décembre 2007 - Disclaimer

ORBIFLY MET'MAP TEAM :

Programmation & Développement : Alexandra Zaïnal
Sur une idée originale de : Baudouin d'Aumeries
Assistance à la programmation : Marc-Olivier Méhu
Soutien technique & logistique : Manuel Goepfert

Contact : metmap@orbifly.com




SOURCES & CREDITS :

   NOAA       Earth
Advisory